Time;durP1;ratioP1;P1;durP2;ratioP2;P2;SDS_P1;SDS_P2;PMS_P1;PMS_P2;Temp;Humidity;BMP_temperature;BMP_pressure;BME280_temperature;BME280_humidity;BME280_pressure;Samples;Min_cycle;Max_cycle;Signal;HPM_P1;HPM_P2
2022/01/22 00:00:30;;;;;;;;;;;;;;;1.93;73.28;101302.31;4966527;28;19929;-90
2022/01/22 00:02:58;;;;;;;;;;;;;;;1.91;74.05;101296.16;4968861;28;19989;-91
2022/01/22 00:05:24;;;;;;;;;;;;;;;1.98;73.74;101299.78;4985121;28;19973;-90
2022/01/22 00:07:50;;;;;;;;;;;;;;;1.85;73.21;101298.69;4985743;28;19924;-90
2022/01/22 00:10:18;;;;;;;;;;;;;;;1.92;73.63;101308.41;4984164;28;19930;-90
2022/01/22 00:15:31;;;;;;;;;;;;;;;1.83;73.14;101307.34;4944257;28;20287;-90
2022/01/22 00:17:59;;;;;;;;;;;;;;;1.93;73.69;101310.16;4984244;28;19929;-91
2022/01/22 00:20:27;;;;;;;;;;;;;;;1.95;73.13;101308.44;4987294;28;20301;-89
2022/01/22 00:22:52;;;;;;;;;;;;;;;1.98;73.02;101305.88;4983603;28;19928;-90
2022/01/22 00:25:19;;;;;;;;;;;;;;;2.02;73.10;101292.88;4968138;28;19918;-90
2022/01/22 00:27:45;;;;;;;;;;;;;;;1.95;72.86;101294.50;4985791;28;19965;-89
2022/01/22 00:30:12;;;;;;;;;;;;;;;1.93;72.74;101298.81;4965376;28;19919;-90
2022/01/22 00:32:37;;;;;;;;;;;;;;;1.98;72.85;101295.44;4968079;28;19918;-89
2022/01/22 00:35:03;;;;;;;;;;;;;;;1.97;72.83;101298.88;4968316;28;19976;-90
2022/01/22 00:37:29;;;;;;;;;;;;;;;2.04;73.10;101291.16;4967953;28;20001;-89
2022/01/22 00:39:54;;;;;;;;;;;;;;;2.05;72.65;101293.78;4967629;28;20016;-90
2022/01/22 00:42:21;;;;;;;;;;;;;;;2.03;72.84;101299.81;4965702;28;19925;-90
2022/01/22 00:44:49;;;;;;;;;;;;;;;2.06;73.06;101297.28;4982474;28;19930;-90
2022/01/22 04:16:23;;;;;;;;;;;;;;;3.08;95.24;101260.31;5770275;23;19938;-86
2022/01/22 04:27:13;;;;;;;;;;;;;;;2.88;93.42;101252.22;4985572;28;19929;-86
2022/01/22 04:29:39;;;;;;;;;;;;;;;2.84;93.19;101253.00;4985295;28;19941;-85
2022/01/22 04:32:05;;;;;;;;;;;;;;;2.79;93.11;101246.84;4984542;28;19918;-89
2022/01/22 04:34:31;;;;;;;;;;;;;;;2.73;92.79;101260.75;4986310;28;19946;-88
2022/01/22 04:36:56;;;;;;;;;;;;;;;2.66;92.64;101258.91;4985454;28;20465;-87
2022/01/22 04:39:23;;;;;;;;;;;;;;;2.67;92.53;101264.16;4984880;28;19922;-89
2022/01/22 04:41:49;;;;;;;;;;;;;;;2.61;92.29;101255.34;4985186;28;19918;-85
2022/01/22 04:44:15;;;;;;;;;;;;;;;2.54;92.27;101262.25;4967805;28;19925;-91
2022/01/22 04:49:13;;;;;;;;;;;;;;;2.51;91.86;101264.81;4985381;28;19918;-86
2022/01/22 04:57:07;;;;;;;;;;;;;;;2.43;91.32;101266.47;4985561;28;19971;-89
2022/01/22 04:59:32;;;;;;;;;;;;;;;2.39;90.89;101262.91;4985383;28;19922;-85
2022/01/22 05:01:58;;;;;;;;;;;;;;;2.37;90.67;101256.78;4983670;28;20322;-88
2022/01/22 05:04:23;;;;;;;;;;;;;;;2.40;91.99;101256.81;4984885;28;19926;-84
2022/01/22 05:06:48;;;;;;;;;;;;;;;2.56;94.56;101263.16;4968524;28;19918;-84
2022/01/22 05:09:14;;;;;;;;;;;;;;;2.60;95.97;101254.50;4984950;28;19926;-84
2022/01/22 05:11:39;;;;;;;;;;;;;;;2.55;96.56;101243.06;4984894;28;20005;-84
2022/01/22 05:14:04;;;;;;;;;;;;;;;2.54;96.91;101246.56;4967862;28;19945;-85
2022/01/22 05:16:30;;;;;;;;;;;;;;;2.47;96.97;101256.06;4983110;28;19918;-84
2022/01/22 05:19:05;;;;;;;;;;;;;;;2.46;96.89;101259.53;4984659;28;19925;-84
2022/01/22 05:21:33;;;;;;;;;;;;;;;2.42;96.92;101273.41;4967194;28;19918;-85
2022/01/22 05:24:03;;;;;;;;;;;;;;;2.40;96.79;101275.13;4984536;28;19922;-85
2022/01/22 05:36:58;;;;;;;;;;;;;;;2.24;96.06;101281.88;4984542;28;19948;-85
2022/01/22 05:39:24;;;;;;;;;;;;;;;2.22;95.88;101282.69;4984148;28;20052;-86
2022/01/22 05:41:50;;;;;;;;;;;;;;;2.21;95.61;101279.22;4984052;28;19922;-85
2022/01/22 08:44:13;;;;;;;;;;;;;;;1.25;82.50;101369.00;4997531;23;19933;-88
2022/01/22 08:46:39;;;;;;;;;;;;;;;1.31;82.51;101359.50;4988486;28;19930;-86
2022/01/22 08:49:05;;;;;;;;;;;;;;;1.34;82.44;101365.69;4986571;28;19922;-89
2022/01/22 08:51:34;;;;;;;;;;;;;;;1.32;82.28;101361.28;5004763;28;19918;-87
2022/01/22 08:54:02;;;;;;;;;;;;;;;1.35;82.21;101366.56;5004323;28;19921;-87
2022/01/22 08:56:28;;;;;;;;;;;;;;;1.28;81.95;101362.97;4986612;28;19966;-87
2022/01/22 08:58:53;;;;;;;;;;;;;;;1.31;81.99;101364.72;5003480;28;20381;-86
2022/01/22 09:01:19;;;;;;;;;;;;;;;1.33;81.96;101368.28;4986844;28;19928;-86
2022/01/22 09:03:45;;;;;;;;;;;;;;;1.36;81.85;101366.59;5004512;28;19941;-86
2022/01/22 09:06:11;;;;;;;;;;;;;;;1.33;81.83;101363.06;4987325;28;19921;-89
2022/01/22 09:08:37;;;;;;;;;;;;;;;1.37;81.86;101370.97;4987102;28;20273;-87
2022/01/22 09:11:02;;;;;;;;;;;;;;;1.35;81.93;101371.78;4987292;28;19921;-88
2022/01/22 09:13:28;;;;;;;;;;;;;;;1.39;81.80;101373.63;4984590;28;19925;-87
2022/01/22 09:15:55;;;;;;;;;;;;;;;1.38;81.96;101377.94;4988272;28;19921;-87
2022/01/22 09:18:20;;;;;;;;;;;;;;;1.33;81.72;101376.97;4989451;28;19925;-87
2022/01/22 09:21:02;;;;;;;;;;;;;;;1.36;81.53;101376.19;4986072;28;19924;-87
2022/01/22 09:23:27;;;;;;;;;;;;;;;1.35;81.10;101377.00;5005374;28;19921;-87
2022/01/22 09:25:55;;;;;;;;;;;;;;;1.36;81.11;101371.81;4986458;28;19972;-87
2022/01/22 09:28:20;;;;;;;;;;;;;;;1.38;81.25;101372.72;4961487;28;20424;-87
2022/01/22 09:30:47;;;;;;;;;;;;;;;1.39;81.11;101378.84;4946553;28;19921;-87
2022/01/22 09:33:13;;;;;;;;;;;;;;;1.43;81.03;101380.66;4946924;28;19922;-88
2022/01/22 09:35:38;;;;;;;;;;;;;;;1.40;80.76;101388.44;4962738;28;20506;-87
2022/01/22 09:38:04;;;;;;;;;;;;;;;1.40;80.59;101389.31;4962503;28;19958;-87
2022/01/22 09:40:30;;;;;;;;;;;;;;;1.42;80.29;101389.34;4970105;28;19918;-86
2022/01/22 09:42:57;;;;;;;;;;;;;;;1.41;80.31;101398.03;4962580;28;19918;-87
2022/01/22 09:45:22;;;;;;;;;;;;;;;1.45;80.09;101392.00;4965854;28;19918;-88
2022/01/22 09:47:51;;;;;;;;;;;;;;;1.44;79.95;101388.53;4965665;28;19918;-88
2022/01/22 09:50:17;;;;;;;;;;;;;;;1.45;79.86;101389.41;4965417;28;19918;-87
2022/01/22 09:52:44;;;;;;;;;;;;;;;1.45;79.85;101389.41;4991421;28;19917;-87
2022/01/22 09:55:16;;;;;;;;;;;;;;;1.45;79.71;101390.31;5002919;28;19917;-87
2022/01/22 09:57:44;;;;;;;;;;;;;;;1.47;79.46;101392.03;5000654;28;19918;-87
2022/01/22 10:00:10;;;;;;;;;;;;;;;1.49;79.43;101393.84;5003390;28;20377;-88
2022/01/22 10:02:43;;;;;;;;;;;;;;;1.51;79.37;101397.38;5002056;28;19922;-89
2022/01/22 10:05:27;;;;;;;;;;;;;;;1.51;79.15;101386.03;5001996;28;20349;-88
2022/01/22 10:07:55;;;;;;;;;;;;;;;1.54;79.15;101389.59;5010322;28;19922;-87
2022/01/22 10:10:20;;;;;;;;;;;;;;;1.55;78.86;101390.50;5003156;28;20336;-88
2022/01/22 10:12:52;;;;;;;;;;;;;;;1.59;78.85;101387.94;5000416;28;19929;-89
2022/01/22 10:15:25;;;;;;;;;;;;;;;1.61;78.97;101390.59;5003570;28;20385;-89
2022/01/22 10:17:50;;;;;;;;;;;;;;;1.62;79.13;101392.34;5010041;28;20285;-87
2022/01/22 10:20:22;;;;;;;;;;;;;;;1.65;78.98;101378.47;5001566;28;19929;-88
2022/01/22 10:22:48;;;;;;;;;;;;;;;1.60;78.76;101383.63;5003267;28;19921;-89
2022/01/22 10:25:20;;;;;;;;;;;;;;;1.67;78.78;101382.88;5001702;28;19953;-87
2022/01/22 10:27:54;;;;;;;;;;;;;;;1.71;78.99;101387.31;5001355;28;19918;-88
2022/01/22 10:30:21;;;;;;;;;;;;;;;1.74;78.85;101386.47;5001454;28;19921;-89
2022/01/22 10:32:51;;;;;;;;;;;;;;;1.81;78.82;101386.63;5003461;28;20249;-89
2022/01/22 10:35:17;;;;;;;;;;;;;;;1.74;78.50;101381.25;5001995;28;19972;-88
2022/01/22 10:37:45;;;;;;;;;;;;;;;1.79;78.57;101383.09;5002831;28;20054;-88
2022/01/22 10:40:29;;;;;;;;;;;;;;;1.84;78.41;101380.56;5001268;28;20388;-88
2022/01/22 10:43:15;;;;;;;;;;;;;;;1.87;78.42;101388.47;5001656;28;19943;-88
2022/01/22 10:45:43;;;;;;;;;;;;;;;1.85;78.40;101389.28;4985340;28;20091;-89
2022/01/22 10:48:21;;;;;;;;;;;;;;;1.87;78.49;101380.63;4985009;28;19964;-88
2022/01/22 10:50:58;;;;;;;;;;;;;;;1.89;78.32;101386.75;5002577;28;19924;-87
2022/01/22 10:53:53;;;;;;;;;;;;;;;1.88;78.50;101384.13;4985081;28;19953;-88
2022/01/22 10:56:20;;;;;;;;;;;;;;;1.93;78.37;101385.97;4988315;28;19926;-89
2022/01/22 10:58:54;;;;;;;;;;;;;;;1.93;78.16;101388.59;5001927;28;19925;-87
2022/01/22 11:01:20;;;;;;;;;;;;;;;1.90;77.81;101388.53;4992609;28;19972;-88
2022/01/22 11:03:46;;;;;;;;;;;;;;;1.95;77.71;101388.63;4985805;28;20461;-87
2022/01/22 11:06:26;;;;;;;;;;;;;;;1.90;77.72;101391.16;4984551;28;20008;-90
2022/01/22 11:08:51;;;;;;;;;;;;;;;1.98;77.36;101389.56;5009023;28;19918;-89
2022/01/22 11:11:17;;;;;;;;;;;;;;;2.00;77.44;101384.34;5002902;28;19972;-89
2022/01/22 11:13:42;;;;;;;;;;;;;;;2.04;77.13;101385.28;4983682;28;19977;-87
2022/01/22 11:16:07;;;;;;;;;;;;;;;2.10;77.20;101388.88;4984771;28;20162;-89
2022/01/22 11:18:33;;;;;;;;;;;;;;;2.11;77.31;101387.16;4984401;28;19922;-88
2022/01/22 11:21:00;;;;;;;;;;;;;;;2.08;77.17;101381.88;5002566;28;19928;-88
2022/01/22 11:23:26;;;;;;;;;;;;;;;2.13;77.14;101385.44;5002006;28;20291;-88
2022/01/22 11:25:51;;;;;;;;;;;;;;;2.07;77.06;101385.34;4984293;28;20008;-90
2022/01/22 11:28:18;;;;;;;;;;;;;;;2.07;77.05;101380.97;5000792;28;19965;-88
2022/01/22 11:30:45;;;;;;;;;;;;;;;2.07;76.90;101380.97;5002248;28;19988;-87
2022/01/22 11:33:12;;;;;;;;;;;;;;;2.14;77.04;101379.38;4984194;28;19925;-88
2022/01/22 11:35:48;;;;;;;;;;;;;;;2.13;77.06;101381.09;4992625;28;19983;-90
2022/01/22 11:38:19;;;;;;;;;;;;;;;2.13;77.22;101385.44;4984471;28;19922;-89
2022/01/22 11:41:04;;;;;;;;;;;;;;;2.18;77.26;101383.78;4984109;28;19975;-88
2022/01/22 11:43:51;;;;;;;;;;;;;;;2.21;77.30;101376.00;4985800;28;20456;-88
2022/01/22 11:46:20;;;;;;;;;;;;;;;2.20;77.24;101366.38;5000577;28;19926;-88
2022/01/22 11:49:05;;;;;;;;;;;;;;;2.20;77.34;101373.34;5000607;28;19921;-88
2022/01/22 11:51:30;;;;;;;;;;;;;;;2.24;77.21;101378.66;5012218;28;19976;-87
2022/01/22 11:53:57;;;;;;;;;;;;;;;2.24;77.68;101370.81;5005765;28;19921;-89
2022/01/22 11:56:25;;;;;;;;;;;;;;;2.26;77.70;101376.06;5012289;28;19921;-88
2022/01/22 11:58:57;;;;;;;;;;;;;;;2.26;77.22;101366.47;5003646;28;19925;-89
2022/01/22 12:01:38;;;;;;;;;;;;;;;2.28;77.23;101375.25;5005480;28;19964;-88
2022/01/22 12:04:04;;;;;;;;;;;;;;;2.31;77.49;101367.44;5004127;28;19918;-88
2022/01/22 12:06:29;;;;;;;;;;;;;;;2.32;77.28;101369.19;5004264;28;19928;-88
2022/01/22 12:09:06;;;;;;;;;;;;;;;2.36;77.24;101367.50;5004153;28;19928;-87
2022/01/22 12:14:41;;;;;;;;;;;;;;;2.34;76.97;101359.63;5006076;28;20005;-88
2022/01/22 12:17:16;;;;;;;;;;;;;;;;;;;;;
2022/01/22 12:22:29;;;;;;;;;;;;;;;2.45;76.99;101361.53;5004965;28;20183;-88
2022/01/22 12:24:54;;;;;;;;;;;;;;;2.40;76.90;101368.44;5003875;28;19933;-89
2022/01/22 12:27:38;;;;;;;;;;;;;;;2.45;77.04;101370.28;5003928;28;19921;-90
2022/01/22 12:30:04;;;;;;;;;;;;;;;2.46;77.03;101363.31;5004112;28;20257;-88
2022/01/22 12:33:01;;;;;;;;;;;;;;;;;;;;;
2022/01/22 12:35:35;;;;;;;;;;;;;;;2.49;76.86;101363.34;5005201;28;19927;-88
2022/01/22 12:38:52;;;;;;;;;;;;;;;2.49;76.54;101368.56;5005259;28;19922;-87
2022/01/22 12:41:26;;;;;;;;;;;;;;;2.51;76.62;101366.88;5002139;28;19918;-89
2022/01/22 12:44:13;;;;;;;;;;;;;;;2.54;76.83;101359.94;5003589;28;19921;-88
2022/01/22 12:46:39;;;;;;;;;;;;;;;2.58;76.87;101363.47;4987242;28;19979;-90
2022/01/22 12:49:10;;;;;;;;;;;;;;;2.59;77.03;101353.91;5004560;28;20373;-89
2022/01/22 12:51:48;;;;;;;;;;;;;;;2.70;77.79;101358.44;4994099;28;19980;-90
2022/01/22 12:54:25;;;;;;;;;;;;;;;2.93;79.79;101359.63;4995262;28;19917;-89
2022/01/22 12:57:01;;;;;;;;;;;;;;;3.09;82.11;101362.47;4985826;28;19940;-89
2022/01/22 12:59:46;;;;;;;;;;;;;;;3.15;83.84;101355.56;5004464;28;19964;-88
2022/01/22 13:02:13;;;;;;;;;;;;;;;3.22;85.42;101353.03;5003461;28;20375;-88
2022/01/22 13:04:39;;;;;;;;;;;;;;;3.24;86.77;101351.31;5004103;28;20324;-88
2022/01/22 13:07:10;;;;;;;;;;;;;;;3.23;87.73;101343.41;4986748;28;19933;-87
2022/01/22 13:09:42;;;;;;;;;;;;;;;3.21;88.43;101345.16;4987874;28;19925;-89
2022/01/22 13:12:12;;;;;;;;;;;;;;;3.07;89.46;101337.97;4986310;28;20256;-88
2022/01/22 13:14:37;;;;;;;;;;;;;;;3.04;90.53;101335.31;4986516;28;19918;-87
2022/01/22 13:17:10;;;;;;;;;;;;;;;3.04;91.80;101335.31;4986891;28;19924;-87
2022/01/22 13:19:37;;;;;;;;;;;;;;;3.03;92.73;101341.44;4982746;28;19918;-88
2022/01/22 13:22:03;;;;;;;;;;;;;;;2.93;93.77;101349.16;4982184;28;19928;-90
2022/01/22 13:24:32;;;;;;;;;;;;;;;2.93;94.90;101343.91;4966252;28;20280;-88
2022/01/22 13:29:30;;;;;;;;;;;;;;;3.03;97.88;101338.81;4981931;28;20296;-89
2022/01/22 13:32:08;;;;;;;;;;;;;;;3.26;100.00;101338.22;4965872;28;20285;-90
2022/01/22 13:34:51;;;;;;;;;;;;;;;3.48;100.00;101334.09;4965900;28;19922;-87
2022/01/22 13:40:40;;;;;;;;;;;;;;;3.73;100.00;101323.88;4982491;28;20299;-87
2022/01/22 13:48:27;;;;;;;;;;;;;;;4.00;100.00;101329.38;4984509;28;19992;-89
2022/01/22 13:50:53;;;;;;;;;;;;;;;4.07;100.00;101325.06;4966861;28;19977;-87
2022/01/22 13:53:18;;;;;;;;;;;;;;;4.12;100.00;101325.97;4967513;28;20289;-90
2022/01/22 13:56:05;;;;;;;;;;;;;;;;;;;;;
2022/01/22 13:58:33;;;;;;;;;;;;;;;4.25;100.00;101320.81;4982612;28;19918;-88
2022/01/22 14:01:05;;;;;;;;;;;;;;;4.29;100.00;101318.25;4967481;28;19925;-91
2022/01/22 14:03:37;;;;;;;;;;;;;;;4.31;100.00;101321.75;4984551;28;19925;-88
2022/01/22 14:06:06;;;;;;;;;;;;;;;4.36;100.00;101322.66;4966166;28;19976;-88
2022/01/22 14:08:36;;;;;;;;;;;;;;;4.38;100.00;101321.78;4966785;28;20436;-88
2022/01/22 14:11:09;;;;;;;;;;;;;;;4.45;100.00;101321.84;4966258;28;19917;-88
2022/01/22 14:13:40;;;;;;;;;;;;;;;4.53;100.00;101328.03;4988804;28;19926;-89
2022/01/22 14:16:14;;;;;;;;;;;;;;;4.50;100.00;101325.38;4984431;28;19918;-90
2022/01/22 14:18:40;;;;;;;;;;;;;;;4.57;100.00;101331.53;4990094;28;19921;-91
2022/01/22 14:21:15;;;;;;;;;;;;;;;;;;;;;
2022/01/22 14:23:42;;;;;;;;;;;;;;;4.66;100.00;101335.97;4984110;28;19924;-87
2022/01/22 14:26:15;;;;;;;;;;;;;;;4.45;100.00;101332.34;4966362;28;19961;-90
2022/01/22 14:29:08;;;;;;;;;;;;;;;3.60;100.00;101342.09;4982445;28;19984;-88
2022/01/22 14:31:35;;;;;;;;;;;;;;;3.22;100.00;101352.13;4983076;28;20014;-87
2022/01/22 14:34:05;;;;;;;;;;;;;;;3.07;100.00;101356.31;4966981;28;20305;-89
2022/01/22 14:36:37;;;;;;;;;;;;;;;2.97;100.00;101356.16;4966721;28;20245;-88
2022/01/22 14:39:27;;;;;;;;;;;;;;;2.88;100.00;101352.56;4966541;28;20013;-89
2022/01/22 14:44:41;;;;;;;;;;;;;;;2.77;99.58;101340.22;4999048;28;20392;-88
2022/01/22 14:47:17;;;;;;;;;;;;;;;2.69;98.55;101343.56;4985005;28;20055;-89
2022/01/22 14:49:46;;;;;;;;;;;;;;;2.62;97.77;101348.72;4993350;28;19917;-87
2022/01/22 14:52:12;;;;;;;;;;;;;;;2.63;97.16;101342.63;4985875;28;19937;-89
2022/01/22 14:54:42;;;;;;;;;;;;;;;2.59;96.39;101360.03;4984686;28;19922;-87
2022/01/22 14:57:11;;;;;;;;;;;;;;;2.59;95.65;101357.41;4991783;28;20498;-89
2022/01/22 14:59:39;;;;;;;;;;;;;;;2.54;95.21;101353.84;4984893;28;20372;-89
2022/01/22 15:02:05;;;;;;;;;;;;;;;2.49;94.79;101358.09;4985113;28;20377;-87
2022/01/22 15:04:34;;;;;;;;;;;;;;;2.49;94.30;101359.00;4984615;28;22579;-88
2022/01/22 15:07:00;;;;;;;;;;;;;;;2.43;93.94;101343.22;5002104;28;19924;-88
2022/01/22 15:09:30;;;;;;;;;;;;;;;2.39;93.30;101348.38;5002264;28;19924;-87
2022/01/22 15:11:56;;;;;;;;;;;;;;;2.40;92.79;101350.13;5000865;28;20374;-89
2022/01/22 15:14:23;;;;;;;;;;;;;;;2.31;92.22;101362.22;4984539;28;19949;-89
2022/01/22 15:17:13;;;;;;;;;;;;;;;2.30;91.56;101357.84;4984733;28;20411;-88
2022/01/22 15:19:39;;;;;;;;;;;;;;;2.25;91.02;101341.19;5001656;28;19918;-87
2022/01/22 15:22:08;;;;;;;;;;;;;;;2.21;90.61;101341.97;4992905;28;19914;-88
2022/01/22 15:24:34;;;;;;;;;;;;;;;2.19;90.21;101356.78;4984091;28;20440;-87
2022/01/22 15:27:00;;;;;;;;;;;;;;;2.12;90.05;101352.28;4983151;28;20020;-88
2022/01/22 15:29:29;;;;;;;;;;;;;;;2.13;89.70;101348.81;4984707;28;19917;-87
2022/01/22 15:35:11;;;;;;;;;;;;;;;2.04;88.99;101356.50;5003068;28;19944;-87
2022/01/22 15:37:12;;;;;;;;;;;;;;;2.02;88.82;101350.38;4988278;28;19917;-86
2022/01/22 15:39:38;;;;;;;;;;;;;;;1.97;88.43;101359.00;4984035;28;19918;-88
2022/01/22 15:42:04;;;;;;;;;;;;;;;1.93;88.19;101359.84;4983004;28;20217;-86
2022/01/22 15:44:31;;;;;;;;;;;;;;;1.95;87.96;101359.88;4995543;28;19953;-88
2022/01/22 15:46:56;;;;;;;;;;;;;;;1.93;87.59;101354.59;5001079;28;19922;-88
2022/01/22 15:49:22;;;;;;;;;;;;;;;1.91;87.51;101358.91;5000623;28;19964;-87
2022/01/22 15:51:51;;;;;;;;;;;;;;;1.88;87.16;101361.47;5001472;28;19940;-88
2022/01/22 15:54:17;;;;;;;;;;;;;;;1.84;87.01;101364.91;5000622;28;19922;-87
2022/01/22 15:56:46;;;;;;;;;;;;;;;1.84;87.10;101358.78;5001535;28;19964;-88
2022/01/22 15:59:12;;;;;;;;;;;;;;;1.83;87.46;101365.75;5001099;28;20378;-86
2022/01/22 16:01:39;;;;;;;;;;;;;;;1.84;87.21;101364.91;5002072;28;20011;-89
2022/01/22 16:04:05;;;;;;;;;;;;;;;1.78;87.02;101377.84;5000772;28;20024;-87
2022/01/22 16:06:46;;;;;;;;;;;;;;;1.74;86.93;101371.69;5008256;28;20016;-89
2022/01/22 16:09:15;;;;;;;;;;;;;;;1.74;86.87;101374.31;5000807;28;20049;-91
2022/01/22 16:11:40;;;;;;;;;;;;;;;1.71;86.88;101386.41;5000614;28;20012;-89
2022/01/22 16:14:08;;;;;;;;;;;;;;;1.69;86.73;101381.19;5002597;28;20060;-86
2022/01/22 16:16:34;;;;;;;;;;;;;;;1.68;86.49;101391.59;5003225;28;19933;-85
2022/01/22 16:18:59;;;;;;;;;;;;;;;1.66;86.29;101388.06;5003994;28;19925;-87
2022/01/22 16:21:25;;;;;;;;;;;;;;;1.65;86.39;101388.94;5000210;28;19921;-86
2022/01/22 16:23:50;;;;;;;;;;;;;;;1.67;86.23;101392.44;5000250;28;19933;-86
2022/01/22 16:26:15;;;;;;;;;;;;;;;1.61;86.21;101391.50;5002296;28;20369;-89
2022/01/22 16:28:41;;;;;;;;;;;;;;;1.58;86.16;101398.34;5000491;28;19926;-89
2022/01/22 16:31:06;;;;;;;;;;;;;;;1.58;86.22;101398.34;4999263;28;20079;-89
2022/01/22 16:33:31;;;;;;;;;;;;;;;1.56;86.09;101395.72;4996810;28;19933;-85
2022/01/22 16:35:57;;;;;;;;;;;;;;;1.56;85.84;101398.31;5000954;28;19926;-86
2022/01/22 16:38:22;;;;;;;;;;;;;;;1.53;85.71;101398.31;4995755;28;19941;-88
2022/01/22 16:40:48;;;;;;;;;;;;;;;1.49;85.70;101391.25;4998867;28;19921;-88
2022/01/22 16:43:14;;;;;;;;;;;;;;;1.44;85.69;101388.53;5000330;28;20013;-87
2022/01/22 16:56:34;;;;;;;;;;;;;;;1.41;85.47;101403.25;4994796;28;19932;-87
2022/01/22 16:59:01;;;;;;;;;;;;;;;1.39;85.38;101400.63;4999262;28;20377;-89
2022/01/22 17:01:32;;;;;;;;;;;;;;;1.35;85.34;101404.00;4996782;28;19999;-87
2022/01/22 17:03:58;;;;;;;;;;;;;;;1.35;85.22;101403.13;4997972;28;19961;-87
2022/01/22 17:06:24;;;;;;;;;;;;;;;1.32;85.28;101406.56;4997016;28;19972;-87
2022/01/22 17:09:00;;;;;;;;;;;;;;;1.31;85.13;101406.53;5005408;28;19929;-87
2022/01/22 17:14:20;;;;;;;;;;;;;;;1.32;85.12;101408.28;4996592;28;19929;-88
2022/01/22 17:16:45;;;;;;;;;;;;;;;1.31;85.27;101404.81;4991208;28;19945;-84
2022/01/22 17:19:13;;;;;;;;;;;;;;;1.30;85.44;101399.56;4996853;28;19948;-86
2022/01/22 17:21:39;;;;;;;;;;;;;;;1.27;85.35;101405.59;4992462;28;19980;-88
2022/01/22 17:24:04;;;;;;;;;;;;;;;1.32;85.28;101405.69;4997256;28;19922;-86
2022/01/22 17:26:29;;;;;;;;;;;;;;;1.30;85.33;101404.78;5003294;28;19918;-88
2022/01/22 17:28:55;;;;;;;;;;;;;;;1.29;85.06;101403.88;4998364;28;20443;-91
2022/01/22 17:31:21;;;;;;;;;;;;;;;1.26;84.96;101396.88;5003331;28;20008;-88
2022/01/22 17:33:50;;;;;;;;;;;;;;;1.26;85.03;101399.50;5002476;28;19925;-86
2022/01/22 17:36:15;;;;;;;;;;;;;;;1.29;84.89;101392.56;5004546;28;19952;-88
2022/01/22 17:38:41;;;;;;;;;;;;;;;1.27;84.72;101400.34;5001772;28;19969;-85
2022/01/22 17:41:08;;;;;;;;;;;;;;;1.27;84.80;101395.13;5000465;28;19964;-90
2022/01/22 17:43:36;;;;;;;;;;;;;;;1.26;84.57;101395.97;4999776;28;20333;-84
2022/01/22 17:46:03;;;;;;;;;;;;;;;1.22;84.50;101399.38;5003272;28;20369;-85
2022/01/22 17:48:29;;;;;;;;;;;;;;;1.22;84.63;101405.47;5002726;28;19925;-87
2022/01/22 17:50:55;;;;;;;;;;;;;;;1.19;84.65;101405.41;4998821;28;19917;-85
2022/01/22 17:53:21;;;;;;;;;;;;;;;1.20;84.41;101403.72;4982954;28;19926;-86
2022/01/22 17:55:46;;;;;;;;;;;;;;;1.22;84.29;101402.00;4973697;28;20425;-88
2022/01/22 17:58:11;;;;;;;;;;;;;;;1.18;84.23;101402.78;4984753;28;19932;-89
2022/01/22 18:00:37;;;;;;;;;;;;;;;1.18;84.04;101401.06;4998182;28;19928;-86
2022/01/22 18:03:03;;;;;;;;;;;;;;;1.15;83.96;101411.44;4980086;28;19957;-84
2022/01/22 18:05:28;;;;;;;;;;;;;;;1.22;83.68;101410.72;4985524;28;20273;-88
2022/01/22 18:07:54;;;;;;;;;;;;;;;1.21;83.68;101406.34;5003603;28;19928;-90
2022/01/22 18:10:23;;;;;;;;;;;;;;;1.16;83.75;101407.09;4996816;28;20289;-85
2022/01/22 18:12:48;;;;;;;;;;;;;;;1.13;83.76;101407.88;4984364;28;19977;-86
2022/01/22 18:15:14;;;;;;;;;;;;;;;1.18;83.73;101411.50;4986910;28;19921;-85
2022/01/22 18:17:39;;;;;;;;;;;;;;;1.19;83.73;101407.16;4986692;28;20433;-85
2022/01/22 18:20:04;;;;;;;;;;;;;;;1.19;83.80;101405.41;5002700;28;19921;-84
2022/01/22 18:22:30;;;;;;;;;;;;;;;1.16;83.94;101415.78;5000706;28;19932;-90
2022/01/22 18:24:56;;;;;;;;;;;;;;;1.20;83.93;101412.41;4985497;28;19917;-86
2022/01/22 18:27:21;;;;;;;;;;;;;;;1.18;83.81;101414.13;4996043;28;20321;-90
2022/01/22 18:29:46;;;;;;;;;;;;;;;1.20;83.89;101417.63;5002369;28;19917;-87
2022/01/22 18:32:12;;;;;;;;;;;;;;;1.19;83.87;101420.22;4985447;28;20304;-85
2022/01/22 18:34:37;;;;;;;;;;;;;;;1.22;83.75;101418.53;5002492;28;20353;-86
2022/01/22 18:37:04;;;;;;;;;;;;;;;1.18;83.72;101414.13;5002252;28;19918;-85
2022/01/22 18:39:30;;;;;;;;;;;;;;;1.22;83.47;101412.44;5002514;28;19945;-88
2022/01/22 18:41:56;;;;;;;;;;;;;;;1.21;83.35;101422.03;4984441;28;19972;-86
2022/01/22 18:44:21;;;;;;;;;;;;;;;1.22;83.25;101421.16;5002959;28;19929;-88
2022/01/22 18:46:47;;;;;;;;;;;;;;;1.17;83.13;101414.97;4987866;28;19917;-88
2022/01/22 18:49:13;;;;;;;;;;;;;;;1.23;83.00;101428.16;5002633;28;19960;-87
2022/01/22 18:51:38;;;;;;;;;;;;;;;1.23;82.73;101429.88;4986326;28;19950;-86
2022/01/22 18:54:04;;;;;;;;;;;;;;;1.20;82.50;101428.09;5002780;28;20524;-86
2022/01/22 18:56:29;;;;;;;;;;;;;;;1.20;82.33;101425.47;4979100;28;19929;-86
2022/01/22 18:58:55;;;;;;;;;;;;;;;1.23;82.27;101427.28;4999203;28;19913;-87
2022/01/22 19:01:21;;;;;;;;;;;;;;;1.19;82.20;101428.91;5001744;28;20417;-90
2022/01/22 19:03:47;;;;;;;;;;;;;;;1.20;82.07;101432.44;5000693;28;19965;-85
2022/01/22 19:06:12;;;;;;;;;;;;;;;1.19;81.90;101430.66;4976781;28;19968;-87
2022/01/22 19:08:37;;;;;;;;;;;;;;;1.19;81.93;101433.28;4995696;28;20016;-88
2022/01/22 19:11:03;;;;;;;;;;;;;;;1.22;81.92;101436.81;5001073;28;19961;-86
2022/01/22 19:13:29;;;;;;;;;;;;;;;1.21;81.74;101432.47;4998343;28;20001;-86
2022/01/22 19:15:55;;;;;;;;;;;;;;;1.23;81.63;101442.94;5003024;28;19925;-87
2022/01/22 19:18:23;;;;;;;;;;;;;;;1.26;81.44;101441.28;5002300;28;19960;-88
2022/01/22 19:20:49;;;;;;;;;;;;;;;1.25;81.32;101444.72;5002450;28;20347;-87
2022/01/22 19:28:08;;;;;;;;;;;;;;;1.22;81.00;101436.81;4998174;28;19926;-86
2022/01/22 19:30:39;;;;;;;;;;;;;;;1.22;80.97;101441.19;4984569;28;19928;-87
2022/01/22 19:33:09;;;;;;;;;;;;;;;1.25;80.99;101436.88;4983962;28;19918;-88
2022/01/22 19:35:38;;;;;;;;;;;;;;;1.24;80.62;101439.47;5000969;28;20357;-87
2022/01/22 19:38:04;;;;;;;;;;;;;;;1.21;80.42;101440.31;5001673;28;19918;-86
2022/01/22 19:40:30;;;;;;;;;;;;;;;1.25;80.42;101436.88;4998637;28;19924;-88
2022/01/22 19:46:12;;;;;;;;;;;;;;;1.26;80.33;101448.22;5244464;23;19968;-86
2022/01/22 19:48:37;;;;;;;;;;;;;;;1.27;80.37;101443.00;4991539;28;19930;-86
2022/01/22 19:51:03;;;;;;;;;;;;;;;1.30;80.03;101444.81;4990286;28;19929;-86
2022/01/22 19:53:28;;;;;;;;;;;;;;;1.32;80.15;101450.09;4993245;28;19921;-86
2022/01/22 19:55:54;;;;;;;;;;;;;;;1.31;79.73;101458.75;5010477;28;19921;-89
2022/01/22 19:58:19;;;;;;;;;;;;;;;1.28;79.62;101454.38;4993691;28;19925;-88
2022/01/22 20:00:45;;;;;;;;;;;;;;;1.31;79.68;101448.31;5009828;28;20056;-86
2022/01/22 20:03:10;;;;;;;;;;;;;;;1.29;79.26;101444.78;4990587;28;19933;-86
2022/01/22 20:05:37;;;;;;;;;;;;;;;1.31;79.48;101454.44;4991405;28;19927;-86
2022/01/22 20:08:04;;;;;;;;;;;;;;;1.36;79.14;101452.78;4992455;28;19926;-86
2022/01/22 20:10:33;;;;;;;;;;;;;;;1.34;78.94;101451.00;5011623;28;20479;-87
2022/01/22 20:12:58;;;;;;;;;;;;;;;1.33;79.08;101446.63;5010921;28;20416;-86
2022/01/22 20:15:24;;;;;;;;;;;;;;;1.31;79.00;101450.91;5009166;28;19936;-87
2022/01/22 20:17:52;;;;;;;;;;;;;;;1.34;79.05;101448.38;5012719;28;19926;-87
2022/01/22 20:20:18;;;;;;;;;;;;;;;1.33;79.17;101449.25;5012712;28;19965;-87
2022/01/22 20:22:43;;;;;;;;;;;;;;;1.34;79.00;101446.66;5011816;28;20419;-86
2022/01/22 20:25:08;;;;;;;;;;;;;;;1.34;79.02;101451.00;5013081;28;19929;-87
2022/01/22 20:27:35;;;;;;;;;;;;;;;1.36;79.09;101455.41;4996899;28;19921;-87
2022/01/22 20:30:00;;;;;;;;;;;;;;;1.40;78.93;101458.97;5010155;28;20020;-88
2022/01/22 20:32:26;;;;;;;;;;;;;;;1.37;78.75;101461.50;5013480;28;20013;-85
2022/01/22 20:34:51;;;;;;;;;;;;;;;1.33;78.45;101459.69;5013852;28;19976;-87
2022/01/22 20:37:17;;;;;;;;;;;;;;;1.38;78.39;101455.44;5014035;28;19918;-86
2022/01/22 20:39:42;;;;;;;;;;;;;;;1.41;78.13;101458.13;4995890;28;19928;-85